Time;durP1;ratioP1;P1;durP2;ratioP2;P2;SDS_P1;SDS_P2;PMS_P1;PMS_P2;Temp;Humidity;BMP_temperature;BMP_pressure;BME280_temperature;BME280_humidity;BME280_pressure;Samples;Min_cycle;Max_cycle;Signal;HPM_P1;HPM_P2
2022/03/22 00:06:54;;;;;;;148.20;65.00;;;;;;;1.18;43.29;100690.20;432430;1270;112224;-40
2022/03/22 00:17:04;;;;;;;129.80;56.80;;;;;;;1.20;43.38;100683.83;432585;1270;107817;-44
2022/03/22 00:47:43;;;;;;;146.00;63.00;;;;;;;0.77;44.44;100689.58;432511;1270;108816;-41
2022/03/22 00:57:51;;;;;;;150.40;60.70;;;;;;;0.38;44.91;100690.59;432472;1270;99276;-42
2022/03/22 01:08:01;;;;;;;161.90;65.40;;;;;;;0.12;45.53;100694.10;432555;1269;112405;-41
2022/03/22 01:18:10;;;;;;;141.50;58.30;;;;;;;-0.25;46.18;100687.41;432471;1269;109302;-41
2022/03/22 01:28:19;;;;;;;134.70;58.70;;;;;;;-0.51;46.11;100679.91;432608;1270;99254;-43
2022/03/22 01:38:26;;;;;;;164.20;65.90;;;;;;;-0.67;46.56;100678.79;432397;1269;112583;-41
2022/03/22 01:48:33;;;;;;;136.00;55.90;;;;;;;-0.70;47.14;100677.92;432537;1269;108844;-41
2022/03/22 01:58:41;;;;;;;145.30;58.10;;;;;;;-0.72;47.04;100674.79;432663;1269;97947;-41
2022/03/22 02:08:49;;;;;;;162.40;67.40;;;;;;;-0.71;47.43;100670.89;432497;1269;108855;-41
2022/03/22 02:18:57;;;;;;;146.80;60.50;;;;;;;-0.69;48.12;100670.23;432537;1269;99159;-42
2022/03/22 02:29:04;;;;;;;140.80;57.60;;;;;;;-0.86;48.60;100668.35;432406;1270;112299;-42
2022/03/22 02:39:12;;;;;;;114.20;46.90;;;;;;;-1.01;48.52;100665.73;433181;1260;108761;-41
2022/03/22 02:49:19;;;;;;;107.40;47.20;;;;;;;-1.06;48.71;100665.72;432425;1271;99382;-40
2022/03/22 02:59:26;;;;;;;105.00;44.20;;;;;;;-0.86;48.81;100670.45;432597;1271;108829;-41
2022/03/22 03:09:33;;;;;;;102.40;43.10;;;;;;;-0.75;48.99;100670.86;432329;1271;99315;-42
2022/03/22 03:19:40;;;;;;;101.70;40.70;;;;;;;-0.73;49.01;100671.73;432374;1271;112548;-41
2022/03/22 03:29:47;;;;;;;92.00;39.90;;;;;;;-0.73;49.30;100674.70;432652;1271;108785;-41
2022/03/22 03:39:54;;;;;;;93.70;42.70;;;;;;;-0.69;49.81;100670.59;432640;1270;99350;-42
2022/03/22 03:50:05;;;;;;;96.50;41.70;;;;;;;-0.79;50.13;100672.21;433181;1268;108790;-40
2022/03/22 04:00:15;;;;;;;110.90;45.60;;;;;;;-1.06;50.55;100673.16;433050;1270;99270;-41
2022/03/22 04:10:23;;;;;;;121.70;50.90;;;;;;;-1.39;50.80;100676.98;433209;1269;112515;-40
2022/03/22 04:20:30;;;;;;;120.20;45.80;;;;;;;-1.63;50.83;100679.98;433010;1269;108801;-39
2022/03/22 04:41:01;;;;;;;87.70;39.60;;;;;;;-1.56;51.61;100681.98;432894;1269;108791;-40
2022/03/22 05:01:34;;;;;;;101.00;43.00;;;;;;;-1.77;51.99;100696.98;432977;1270;112380;-40
2022/03/22 05:11:41;;;;;;;180.80;61.80;;;;;;;-1.98;52.20;100698.88;433087;1270;108833;-42
2022/03/22 05:21:49;;;;;;;161.40;60.50;;;;;;;-1.95;52.67;100704.24;433227;1269;99271;-39
2022/03/22 05:31:56;;;;;;;140.50;56.10;;;;;;;-1.37;53.19;100707.13;432982;1270;108805;-41
2022/03/22 05:42:04;;;;;;;146.90;59.80;;;;;;;0.35;52.82;100703.96;433192;1270;99247;-40
2022/03/22 05:52:12;;;;;;;181.40;67.30;;;;;;;1.69;52.10;100705.59;433233;1270;112420;-40
2022/03/22 06:02:19;;;;;;;151.20;67.20;;;;;;;3.16;51.20;100707.33;433000;1269;108999;-41
2022/03/22 06:12:27;;;;;;;176.80;71.00;;;;;;;4.57;50.19;100706.35;433235;1269;97962;-41
2022/03/22 06:22:33;;;;;;;111.00;49.20;;;;;;;5.89;49.09;100705.90;433219;1269;111446;-41
2022/03/22 06:42:51;;;;;;;102.60;46.30;;;;;;;8.48;46.37;100705.52;433158;1270;99344;-41
2022/03/22 06:52:59;;;;;;;83.00;37.70;;;;;;;9.01;44.39;100698.66;433063;1271;108718;-41
2022/03/22 07:03:06;;;;;;;81.60;39.90;;;;;;;9.83;43.18;100698.46;432953;1270;99469;-42
2022/03/22 07:13:14;;;;;;;75.20;35.60;;;;;;;10.73;42.10;100702.67;433280;1270;112476;-41
2022/03/22 07:23:21;;;;;;;68.20;34.70;;;;;;;11.22;40.27;100707.05;433361;1269;108921;-40
2022/03/22 07:33:29;;;;;;;69.90;36.60;;;;;;;11.38;39.45;100710.10;433132;1270;99286;-41
2022/03/22 07:43:37;;;;;;;62.60;34.20;;;;;;;11.66;38.78;100707.70;433124;1270;109094;-41
2022/03/22 07:53:46;;;;;;;70.80;38.00;;;;;;;11.52;37.67;100710.00;433195;1270;98028;-41
2022/03/22 08:03:53;;;;;;;63.90;32.50;;;;;;;11.81;37.27;100704.34;433270;1270;112287;-41
2022/03/22 08:14:02;;;;;;;46.50;25.40;;;;;;;12.53;35.99;100699.85;433353;1270;109000;-42
2022/03/22 08:24:08;;;;;;;47.80;27.10;;;;;;;13.20;34.80;100687.22;433365;1269;98481;-41
2022/03/22 08:34:15;;;;;;;42.90;25.50;;;;;;;13.71;34.04;100682.64;432097;1270;108799;-42
2022/03/22 08:44:22;;;;;;;26.90;18.40;;;;;;;13.83;32.92;100681.32;433191;1269;98027;-42
2022/03/22 08:54:28;;;;;;;34.20;21.20;;;;;;;14.07;32.09;100678.01;433124;1270;112337;-41
2022/03/22 09:15:01;;;;;;;27.20;16.50;;;;;;;14.48;30.99;100662.21;432996;1269;99119;-41
2022/03/22 09:25:11;;;;;;;25.40;16.20;;;;;;;14.81;31.08;100657.23;433076;1269;108814;-40
2022/03/22 09:55:30;;;;;;;23.30;15.30;;;;;;;15.42;30.41;100632.41;433117;1269;107465;-41
2022/03/22 10:05:38;;;;;;;25.20;16.00;;;;;;;15.55;29.95;100632.70;433066;1270;99273;-42
2022/03/22 10:15:46;;;;;;;27.00;15.10;;;;;;;15.63;29.45;100625.30;432911;1270;108926;-43
2022/03/22 10:26:02;;;;;;;27.40;15.00;;;;;;;15.81;29.12;100624.09;433275;1270;99175;-39
2022/03/22 10:46:20;;;;;;;19.90;12.90;;;;;;;16.28;28.80;100612.07;433132;1270;108777;-41
2022/03/22 10:56:25;;;;;;;24.20;14.60;;;;;;;16.49;28.18;100605.42;433145;1270;99284;-44
2022/03/22 11:06:38;;;;;;;22.90;14.30;;;;;;;16.61;27.91;100589.10;432869;1270;109186;-41
2022/03/22 11:16:46;;;;;;;21.10;13.80;;;;;;;16.70;27.75;100580.71;432915;1270;99301;-42
2022/03/22 11:26:58;;;;;;;27.20;15.70;;;;;;;17.03;27.82;100570.07;433123;1270;112443;-41
2022/03/22 11:37:02;;;;;;;28.10;16.50;;;;;;;16.99;27.63;100561.98;432983;1270;107669;-41
2022/03/22 11:47:11;;;;;;;26.10;17.10;;;;;;;17.14;27.41;100549.08;432957;1271;99139;-42
2022/03/22 11:57:18;;;;;;;32.00;18.20;;;;;;;17.30;27.05;100542.33;433047;1270;111038;-40
2022/03/22 12:17:31;;;;;;;28.30;15.80;;;;;;;17.40;26.78;100525.89;433048;1269;99344;-40
2022/03/22 12:27:38;;;;;;;21.90;13.60;;;;;;;17.44;26.97;100512.62;433023;1271;112474;-42
2022/03/22 12:37:45;;;;;;;46.80;16.30;;;;;;;17.50;27.15;100503.23;433037;1269;108938;-41
2022/03/22 12:47:56;;;;;;;19.80;12.30;;;;;;;17.65;26.90;100486.72;433188;1269;99302;-42
2022/03/22 12:58:03;;;;;;;24.30;11.50;;;;;;;17.66;26.59;100481.46;432714;1270;109292;-43
2022/03/22 13:08:13;;;;;;;18.00;10.80;;;;;;;17.70;26.75;100468.70;432964;1270;99309;-40
2022/03/22 13:18:21;;;;;;;17.10;10.90;;;;;;;17.73;26.24;100464.13;433006;1269;112348;-41
2022/03/22 13:28:37;;;;;;;18.60;11.40;;;;;;;17.64;26.09;100454.49;433155;1270;107579;-42
2022/03/22 13:38:52;;;;;;;69.80;15.40;;;;;;;17.62;26.19;100447.06;433211;1270;98037;-41
2022/03/22 13:48:59;;;;;;;19.00;11.40;;;;;;;17.74;25.97;100439.34;433028;1271;109117;-42
2022/03/22 13:59:11;;;;;;;18.00;10.40;;;;;;;17.71;26.13;100435.58;433039;1270;98853;-41
2022/03/22 14:19:29;;;;;;;14.70;10.30;;;;;;;17.64;24.71;100427.30;432679;1270;108845;-41
2022/03/22 14:29:35;;;;;;;16.50;10.50;;;;;;;17.52;25.20;100416.71;433129;1270;99942;-42
2022/03/22 14:49:53;;;;;;;16.80;9.80;;;;;;;17.28;25.97;100401.84;433109;1270;98742;-41
2022/03/22 15:10:09;;;;;;;19.90;10.50;;;;;;;17.23;25.27;100377.00;433052;1271;108735;-46
2022/03/22 15:30:23;;;;;;;14.40;8.20;;;;;;;17.03;25.14;100367.59;433171;1270;112400;-41
2022/03/22 15:40:30;;;;;;;16.40;9.50;;;;;;;16.85;25.66;100357.65;433001;1271;108863;-42
2022/03/22 15:50:38;;;;;;;25.10;14.80;;;;;;;16.67;25.75;100354.74;433122;1269;99269;-42
2022/03/22 16:00:42;;;;;;;22.30;14.80;;;;;;;16.53;25.98;100359.27;433156;1271;108490;-42
2022/03/22 16:10:50;;;;;;;24.90;14.20;;;;;;;16.26;26.47;100359.58;433192;1271;98861;-42
2022/03/22 16:20:59;;;;;;;29.20;15.40;;;;;;;15.90;26.90;100355.94;433160;1271;112109;-42
2022/03/22 16:31:06;;;;;;;23.90;13.10;;;;;;;15.53;27.46;100355.64;433160;1270;107632;-43
2022/03/22 16:41:14;;;;;;;20.70;11.90;;;;;;;15.12;27.91;100354.80;432467;1270;98061;-41
2022/03/22 16:51:21;;;;;;;27.00;15.10;;;;;;;14.66;28.53;100355.94;433050;1270;108835;-42
2022/03/22 17:01:30;;;;;;;38.50;17.30;;;;;;;14.19;29.00;100352.50;433032;1271;98873;-42
2022/03/22 17:11:37;;;;;;;29.30;18.20;;;;;;;13.71;29.49;100354.64;432908;1271;112473;-40
2022/03/22 17:21:45;;;;;;;46.40;22.00;;;;;;;13.28;30.01;100357.11;432949;1271;107910;-40
2022/03/22 17:31:52;;;;;;;65.90;34.60;;;;;;;12.84;30.57;100367.52;432621;1269;99378;-43
2022/03/22 17:42:01;;;;;;;45.40;23.00;;;;;;;12.34;31.11;100368.52;432654;1271;108811;-42
2022/03/22 17:52:08;;;;;;;68.70;38.70;;;;;;;11.84;31.70;100365.02;432483;1271;99855;-45
2022/03/22 18:02:16;;;;;;;66.10;32.30;;;;;;;11.35;32.11;100369.80;432605;1271;112434;-42
2022/03/22 18:12:24;;;;;;;55.90;29.00;;;;;;;10.96;32.83;100368.98;432663;1271;108777;-42
2022/03/22 18:32:39;;;;;;;61.90;35.10;;;;;;;10.44;33.54;100374.05;432764;1270;108757;-41
2022/03/22 18:42:49;;;;;;;90.30;46.40;;;;;;;10.17;33.99;100375.83;432784;1271;99358;-42
2022/03/22 18:52:57;;;;;;;92.50;44.10;;;;;;;9.85;34.43;100379.51;432720;1270;112414;-42
2022/03/22 19:03:04;;;;;;;111.60;57.30;;;;;;;9.44;35.05;100378.73;432680;1269;108786;-41
2022/03/22 19:13:12;;;;;;;129.00;61.40;;;;;;;9.06;35.64;100382.97;432687;1271;98879;-41
2022/03/22 19:23:19;;;;;;;129.10;62.40;;;;;;;8.63;36.17;100390.40;432755;1270;112459;-43
2022/03/22 19:43:35;;;;;;;148.60;72.00;;;;;;;7.77;37.45;100386.64;432607;1269;99926;-41
2022/03/22 19:53:43;;;;;;;175.80;80.90;;;;;;;7.48;38.21;100386.44;432598;1271;112247;-41
2022/03/22 20:14:13;;;;;;;169.20;80.80;;;;;;;6.90;39.56;100385.59;432505;1270;99263;-41
2022/03/22 20:24:22;;;;;;;172.50;86.50;;;;;;;6.70;39.86;100395.21;432584;1271;112352;-41
2022/03/22 20:34:30;;;;;;;202.30;87.20;;;;;;;6.49;40.48;100384.34;432662;1271;108952;-40
2022/03/22 20:44:37;;;;;;;174.20;83.90;;;;;;;6.32;40.88;100386.02;432603;1271;98828;-42
2022/03/22 20:54:44;;;;;;;173.00;82.40;;;;;;;6.19;41.18;100387.61;432690;1271;112610;-40
2022/03/22 21:04:50;;;;;;;170.00;76.00;;;;;;;6.09;41.53;100384.64;431802;1271;600413;-42
2022/03/22 21:14:58;;;;;;;169.30;76.40;;;;;;;6.14;41.83;100374.00;432325;1271;99251;-43
2022/03/22 21:25:07;;;;;;;155.40;68.00;;;;;;;6.32;41.96;100365.76;432470;1271;108982;-41
2022/03/22 21:35:14;;;;;;;144.80;71.20;;;;;;;6.41;41.94;100361.22;432575;1271;97983;-41
2022/03/22 21:45:25;;;;;;;120.50;58.20;;;;;;;6.26;42.02;100361.02;432511;1271;111482;-43
2022/03/22 22:05:39;;;;;;;126.90;55.60;;;;;;;6.19;42.33;100345.14;432653;1271;99144;-43
2022/03/22 22:15:45;;;;;;;116.00;55.50;;;;;;;6.07;42.43;100337.89;432406;1271;112741;-41
2022/03/22 22:25:52;;;;;;;116.80;56.40;;;;;;;5.85;42.61;100337.89;432259;1271;109057;-43
2022/03/22 22:35:59;;;;;;;128.20;62.10;;;;;;;5.57;42.93;100329.92;432491;1271;99269;-41
2022/03/22 22:46:05;;;;;;;135.40;61.10;;;;;;;5.29;43.25;100319.63;432604;1270;111206;-42
2022/03/22 22:56:13;;;;;;;133.30;63.30;;;;;;;5.06;43.64;100305.86;432430;1271;108667;-40
2022/03/22 23:16:27;;;;;;;136.40;63.10;;;;;;;4.69;44.51;100301.54;432555;1271;112485;-40
2022/03/22 23:26:34;;;;;;;125.40;58.30;;;;;;;4.78;44.63;100294.69;432520;1271;107790;-42
2022/03/22 23:36:41;;;;;;;135.60;59.90;;;;;;;4.79;44.88;100281.00;432514;1271;97979;-41
2022/03/22 23:46:49;;;;;;;129.10;59.80;;;;;;;4.73;45.30;100274.40;432393;1271;112587;-41
2022/03/22 23:56:55;;;;;;;128.10;57.30;;;;;;;4.69;45.63;100263.45;432466;1271;108866;-42
